createdAt,value
2022-08-17T00:00:42.830Z,100.00
2022-08-17T00:03:47.468Z,100.00
2022-08-17T00:06:49.772Z,100.00
2022-08-17T00:09:51.657Z,100.00
2022-08-17T00:12:53.883Z,100.00
2022-08-17T00:16:02.859Z,100.00
2022-08-17T00:19:08.776Z,100.00
2022-08-17T00:22:35.027Z,100.00
2022-08-17T00:25:32.715Z,100.00
2022-08-17T00:28:35.342Z,100.00
2022-08-17T00:31:38.637Z,100.00
2022-08-17T00:34:40.373Z,100.00
2022-08-17T00:37:42.419Z,100.00
2022-08-17T00:40:59.271Z,100.00
2022-08-17T00:44:04.306Z,100.00
2022-08-17T00:47:06.264Z,100.00
2022-08-17T00:50:14.107Z,100.00
2022-08-17T00:53:16.767Z,100.00
2022-08-17T00:56:26.272Z,100.00
2022-08-17T00:59:35.214Z,100.00
2022-08-17T01:02:42.310Z,100.00
2022-08-17T01:05:46.297Z,100.00
2022-08-17T01:08:49.969Z,100.00
2022-08-17T01:11:59.741Z,100.00
2022-08-17T01:15:01.544Z,100.00
2022-08-17T01:18:05.609Z,100.00
2022-08-17T01:21:14.233Z,100.00
2022-08-17T01:24:17.081Z,100.00
2022-08-17T01:27:21.184Z,100.00
2022-08-17T01:30:59.004Z,100.00
2022-08-17T01:33:45.228Z,100.00
2022-08-17T01:36:49.475Z,100.00
2022-08-17T01:39:56.129Z,100.00
2022-08-17T01:43:07.461Z,100.00
2022-08-17T01:46:09.721Z,100.00
2022-08-17T01:49:12.916Z,100.00
2022-08-17T01:52:15.552Z,100.00
2022-08-17T01:55:27.220Z,100.00
2022-08-17T01:58:29.595Z,100.00
2022-08-17T02:01:33.793Z,100.00
2022-08-17T02:04:35.611Z,100.00
2022-08-17T02:07:55.970Z,100.00
2022-08-17T02:10:59.331Z,100.00
2022-08-17T02:14:04.074Z,100.00
2022-08-17T02:17:05.931Z,100.00
2022-08-17T02:20:09.771Z,100.00
2022-08-17T02:23:13.092Z,100.00
2022-08-17T02:26:24.055Z,100.00
2022-08-17T02:29:28.481Z,100.00
2022-08-17T02:32:30.392Z,100.00
2022-08-17T02:35:32.339Z,100.00
2022-08-17T02:38:34.314Z,100.00
2022-08-17T02:41:37.327Z,100.00
2022-08-17T02:44:40.257Z,100.00
2022-08-17T02:47:44.349Z,100.00
2022-08-17T02:50:46.340Z,100.00
2022-08-17T02:53:48.230Z,100.00
2022-08-17T02:56:50.063Z,100.00
2022-08-17T02:59:51.755Z,100.00
2022-08-17T03:02:54.073Z,100.00
2022-08-17T03:05:58.063Z,100.00
2022-08-17T03:08:59.760Z,100.00
2022-08-17T03:12:17.993Z,100.00
2022-08-17T03:15:24.889Z,100.00
2022-08-17T03:18:28.077Z,100.00
2022-08-17T03:21:30.085Z,100.00
2022-08-17T03:24:31.800Z,100.00
2022-08-17T03:27:33.706Z,100.00
2022-08-17T03:30:36.805Z,100.00
2022-08-17T03:33:38.502Z,100.00
2022-08-17T03:36:40.338Z,100.00
2022-08-17T03:39:42.883Z,100.00
2022-08-17T03:42:45.007Z,100.00
2022-08-17T03:46:05.837Z,100.00
2022-08-17T03:49:31.463Z,100.00
2022-08-17T03:52:52.042Z,100.00
2022-08-17T03:56:13.299Z,100.00
2022-08-17T03:59:22.677Z,100.00
2022-08-17T04:02:29.111Z,100.00
2022-08-17T04:05:31.144Z,100.00
2022-08-17T04:08:36.243Z,100.00
2022-08-17T04:11:38.831Z,100.00
2022-08-17T04:14:52.827Z,100.00
2022-08-17T04:17:56.240Z,100.00
2022-08-17T04:20:57.964Z,100.00
2022-08-17T04:24:00.688Z,100.00
2022-08-17T04:27:02.440Z,100.00
2022-08-17T04:30:07.293Z,100.00
2022-08-17T04:33:14.086Z,100.00
2022-08-17T04:36:16.268Z,100.00
2022-08-17T04:39:18.050Z,100.00
2022-08-17T04:42:19.923Z,100.00
2022-08-17T04:45:22.073Z,100.00
2022-08-17T04:48:34.764Z,100.00
2022-08-17T04:51:54.536Z,100.00
2022-08-17T04:54:57.374Z,100.00
2022-08-17T04:57:59.265Z,100.00
2022-08-17T05:01:01.549Z,100.00
2022-08-17T05:04:33.119Z,100.00
2022-08-17T05:07:31.551Z,100.00
2022-08-17T05:10:37.351Z,100.00
2022-08-17T05:13:50.311Z,100.00
2022-08-17T05:16:52.244Z,100.00
2022-08-17T05:19:54.369Z,100.00
2022-08-17T05:23:00.314Z,100.00
2022-08-17T05:26:02.401Z,100.00
2022-08-17T05:29:04.190Z,100.00
2022-08-17T05:32:39.173Z,100.00
2022-08-17T05:35:37.789Z,100.00
2022-08-17T05:38:39.833Z,100.00
2022-08-17T05:41:41.611Z,100.00
2022-08-17T05:44:43.384Z,100.00
2022-08-17T05:47:46.920Z,100.00
2022-08-17T05:50:52.445Z,100.00
2022-08-17T05:54:22.247Z,100.00
2022-08-17T05:57:53.478Z,100.00
2022-08-17T06:01:09.218Z,100.00
2022-08-17T06:04:45.519Z,100.00
2022-08-17T06:08:02.913Z,100.00
2022-08-17T06:11:24.624Z,98.63
2022-08-17T06:14:54.376Z,97.25
2022-08-17T06:18:04.078Z,96.53
2022-08-17T06:21:11.677Z,95.78
2022-08-17T06:24:35.243Z,95.46
2022-08-17T06:27:53.702Z,92.53
2022-08-17T06:31:12.684Z,93.15
2022-08-17T06:34:15.161Z,93.81
2022-08-17T06:37:55.951Z,91.40
2022-08-17T06:41:06.440Z,91.35
2022-08-17T06:44:43.262Z,91.29
2022-08-17T06:47:53.239Z,89.53
2022-08-17T06:51:00.926Z,89.17
2022-08-17T06:54:06.529Z,87.30
2022-08-17T06:57:22.364Z,85.95
2022-08-17T07:00:29.616Z,86.69
2022-08-17T07:03:39.837Z,86.79
2022-08-17T07:06:47.148Z,87.49
2022-08-17T07:09:50.689Z,89.23
2022-08-17T07:13:00.906Z,91.65
2022-08-17T07:16:19.785Z,94.39
2022-08-17T07:19:25.728Z,95.27
2022-08-17T07:22:53.570Z,95.17
2022-08-17T07:26:09.238Z,94.91
2022-08-17T07:29:17.568Z,93.80
2022-08-17T07:32:31.538Z,92.62
2022-08-17T07:35:44.884Z,91.18
2022-08-17T07:38:57.729Z,89.56
2022-08-17T07:42:04.521Z,88.96
2022-08-17T07:45:28.662Z,88.31
2022-08-17T07:48:36.604Z,86.30
2022-08-17T07:51:45.850Z,84.53
2022-08-17T07:54:48.531Z,83.39
2022-08-17T07:57:57.457Z,80.22
2022-08-17T08:01:18.529Z,79.36
2022-08-17T08:05:01.450Z,75.08
2022-08-17T08:08:18.722Z,74.23
2022-08-17T08:11:35.853Z,76.00
2022-08-17T08:14:39.822Z,74.20
2022-08-17T08:17:57.632Z,70.29
2022-08-17T08:21:05.386Z,72.33
2022-08-17T08:24:31.459Z,71.10
2022-08-17T08:27:55.262Z,67.28
2022-08-17T08:31:24.359Z,67.25
2022-08-17T08:35:02.141Z,63.83
2022-08-17T08:38:43.199Z,60.80
2022-08-17T08:42:07.971Z,62.69
2022-08-17T08:45:23.664Z,61.41
2022-08-17T08:49:00.922Z,62.00
2022-08-17T08:52:09.223Z,61.77
2022-08-17T08:55:45.461Z,60.27
2022-08-17T08:59:25.464Z,61.63
2022-08-17T09:02:38.961Z,61.24
2022-08-17T09:05:56.372Z,62.87
2022-08-17T09:09:59.510Z,61.47
2022-08-17T09:13:39.109Z,59.71
2022-08-17T09:16:55.340Z,58.61
2022-08-17T09:20:27.319Z,57.68
2022-08-17T09:23:59.865Z,57.83
2022-08-17T09:27:52.921Z,55.82
2022-08-17T09:31:08.075Z,57.08
2022-08-17T09:34:22.304Z,57.26
2022-08-17T09:37:39.297Z,57.51
2022-08-17T09:41:11.336Z,54.75
2022-08-17T09:45:04.831Z,53.26
2022-08-17T09:48:27.613Z,53.29
2022-08-17T09:51:36.621Z,51.87
2022-08-17T09:54:42.414Z,52.07
2022-08-17T09:57:52.234Z,48.74
2022-08-17T10:01:22.726Z,47.79
2022-08-17T10:05:06.819Z,47.03
2022-08-17T10:08:18.030Z,46.11
2022-08-17T10:12:13.113Z,47.92
2022-08-17T10:15:22.602Z,47.13
2022-08-17T10:19:05.869Z,47.30
2022-08-17T10:22:38.924Z,47.86
2022-08-17T10:26:21.415Z,48.58
2022-08-17T10:29:49.603Z,49.47
2022-08-17T10:33:01.967Z,49.87
2022-08-17T10:36:17.777Z,49.92
2022-08-17T10:39:58.673Z,49.76
2022-08-17T10:43:02.533Z,49.82
2022-08-17T10:46:30.216Z,49.97
2022-08-17T10:49:37.967Z,49.20
2022-08-17T10:52:48.735Z,44.67
2022-08-17T10:56:19.473Z,47.46
2022-08-17T10:59:36.453Z,45.51
2022-08-17T11:02:55.380Z,44.62
2022-08-17T11:06:09.544Z,45.03
2022-08-17T11:09:36.741Z,45.54
2022-08-17T11:13:03.963Z,45.74
2022-08-17T11:16:38.376Z,45.31
2022-08-17T11:19:54.913Z,45.26
2022-08-17T11:23:02.952Z,44.45
2022-08-17T11:26:29.784Z,44.90
2022-08-17T11:30:05.405Z,43.96
2022-08-17T11:33:28.937Z,44.31
2022-08-17T11:36:53.361Z,45.84
2022-08-17T11:40:17.313Z,46.96
2022-08-17T11:43:43.054Z,45.51
2022-08-17T11:47:30.117Z,46.94
2022-08-17T11:51:03.737Z,46.81
2022-08-17T11:54:42.324Z,46.25
2022-08-17T11:57:46.248Z,45.16
2022-08-17T12:00:53.159Z,46.07
2022-08-17T12:04:19.786Z,45.98
2022-08-17T12:07:23.349Z,44.63
2022-08-17T12:10:32.351Z,44.58
2022-08-17T12:13:49.151Z,43.75
2022-08-17T12:17:06.626Z,43.39
2022-08-17T12:20:38.567Z,41.79
2022-08-17T12:23:58.221Z,41.95
2022-08-17T12:27:04.323Z,42.43
2022-08-17T12:30:12.119Z,42.85
2022-08-17T12:33:25.665Z,41.85
2022-08-17T12:36:32.814Z,41.12
2022-08-17T12:39:35.478Z,40.99
2022-08-17T12:42:40.398Z,42.37
2022-08-17T12:45:42.549Z,38.65
2022-08-17T12:48:58.898Z,39.46
2022-08-17T12:52:11.512Z,43.25
2022-08-17T12:55:22.519Z,41.68
2022-08-17T12:58:31.859Z,43.37
2022-08-17T13:01:35.142Z,41.90
2022-08-17T13:04:40.064Z,42.41
2022-08-17T13:07:46.790Z,41.42
2022-08-17T13:11:09.915Z,42.36
2022-08-17T13:14:12.101Z,44.00
2022-08-17T13:17:26.883Z,43.35
2022-08-17T13:20:29.387Z,43.90
2022-08-17T13:23:32.271Z,42.16
2022-08-17T13:26:46.311Z,42.05
2022-08-17T13:29:59.544Z,41.50
2022-08-17T13:33:04.942Z,40.43
2022-08-17T13:36:08.817Z,41.15
2022-08-17T13:39:14.119Z,43.03
2022-08-17T13:42:48.085Z,40.72
2022-08-17T13:46:09.176Z,41.53
2022-08-17T13:49:18.080Z,41.29
2022-08-17T13:52:39.560Z,40.55
2022-08-17T13:55:48.847Z,42.65
2022-08-17T13:59:02.763Z,44.88
2022-08-17T14:02:07.229Z,47.52
2022-08-17T14:05:09.212Z,45.51
2022-08-17T14:08:15.588Z,48.59
2022-08-17T14:11:18.388Z,49.81
2022-08-17T14:14:23.161Z,54.28
2022-08-17T14:17:26.913Z,65.85
2022-08-17T14:20:29.067Z,98.22
2022-08-17T14:23:35.179Z,100.00
2022-08-17T14:26:37.077Z,100.00
2022-08-17T14:29:41.252Z,100.00
2022-08-17T14:32:45.420Z,100.00
2022-08-17T14:35:47.257Z,100.00
2022-08-17T14:38:49.470Z,100.00
2022-08-17T14:41:53.059Z,100.00
2022-08-17T14:44:55.873Z,100.00
2022-08-17T14:47:57.820Z,100.00
2022-08-17T14:50:59.776Z,100.00
2022-08-17T14:54:01.671Z,100.00
2022-08-17T14:57:23.283Z,100.00
2022-08-17T15:00:26.880Z,100.00
2022-08-17T15:03:28.780Z,100.00
2022-08-17T15:06:30.575Z,100.00
2022-08-17T15:09:33.585Z,100.00
2022-08-17T15:12:39.427Z,100.00
2022-08-17T15:15:42.293Z,100.00
2022-08-17T15:18:44.191Z,100.00
2022-08-17T15:21:47.152Z,100.00
2022-08-17T15:24:48.917Z,100.00
2022-08-17T15:27:51.138Z,100.00
2022-08-17T15:30:53.317Z,100.00
2022-08-17T15:33:55.300Z,100.00
2022-08-17T15:36:57.126Z,100.00
2022-08-17T15:40:00.777Z,100.00
2022-08-17T15:43:12.944Z,100.00
2022-08-17T15:46:20.951Z,100.00
2022-08-17T15:49:23.152Z,100.00
2022-08-17T15:52:30.171Z,100.00
2022-08-17T15:55:33.469Z,100.00
2022-08-17T15:58:36.901Z,100.00
2022-08-17T16:03:13.157Z,100.00
2022-08-17T16:05:11.118Z,100.00
2022-08-17T16:08:20.687Z,100.00
2022-08-17T16:11:23.470Z,100.00
2022-08-17T16:14:30.247Z,100.00
2022-08-17T16:17:39.867Z,100.00
2022-08-17T16:20:42.757Z,99.23
2022-08-17T16:23:44.491Z,96.58
2022-08-17T16:26:46.290Z,96.49
2022-08-17T16:29:49.814Z,95.60
2022-08-17T16:32:59.811Z,91.29
2022-08-17T16:36:01.600Z,89.02
2022-08-17T16:39:04.796Z,87.26
2022-08-17T16:42:24.501Z,86.99
2022-08-17T16:45:31.376Z,79.48
2022-08-17T16:48:33.072Z,81.02
2022-08-17T16:51:35.719Z,80.48
2022-08-17T16:54:40.555Z,82.27
2022-08-17T16:57:47.534Z,78.42
2022-08-17T17:00:52.281Z,78.03
2022-08-17T17:03:58.472Z,75.52
2022-08-17T17:07:25.862Z,80.09
2022-08-17T17:10:57.525Z,79.10
2022-08-17T17:14:04.406Z,79.67
2022-08-17T17:17:34.177Z,83.23
2022-08-17T17:20:42.650Z,85.19
2022-08-17T17:24:00.463Z,84.54
2022-08-17T17:27:47.369Z,84.24
2022-08-17T17:30:52.548Z,86.37
2022-08-17T17:34:03.985Z,86.75
2022-08-17T17:37:12.556Z,88.93
2022-08-17T17:40:32.971Z,94.90
2022-08-17T17:43:40.551Z,100.00
2022-08-17T17:46:46.950Z,100.00
2022-08-17T17:49:49.504Z,100.00
2022-08-17T17:53:35.207Z,100.00
2022-08-17T17:56:55.265Z,100.00
2022-08-17T18:00:12.870Z,100.00
2022-08-17T18:03:42.719Z,100.00
2022-08-17T18:07:22.871Z,100.00
2022-08-17T18:10:37.171Z,100.00
2022-08-17T18:14:20.670Z,100.00
2022-08-17T18:17:23.779Z,100.00
2022-08-17T18:20:35.941Z,100.00
2022-08-17T18:23:56.099Z,100.00
2022-08-17T18:27:01.018Z,100.00
2022-08-17T18:30:27.391Z,100.00
2022-08-17T18:33:29.216Z,100.00
2022-08-17T18:36:39.900Z,100.00
2022-08-17T18:39:41.708Z,100.00
2022-08-17T18:42:58.408Z,100.00
2022-08-17T18:46:17.229Z,100.00
2022-08-17T18:49:30.780Z,100.00
2022-08-17T18:52:34.100Z,100.00
2022-08-17T18:55:38.071Z,100.00
2022-08-17T18:58:40.279Z,100.00
2022-08-17T19:02:10.175Z,100.00
2022-08-17T19:05:27.441Z,100.00
2022-08-17T19:08:29.234Z,100.00
2022-08-17T19:11:35.407Z,100.00
2022-08-17T19:14:37.379Z,100.00
2022-08-17T19:17:48.348Z,100.00
2022-08-17T19:21:09.929Z,100.00
2022-08-17T19:24:19.292Z,100.00
2022-08-17T19:27:25.616Z,100.00
2022-08-17T19:30:37.072Z,100.00
2022-08-17T19:33:43.728Z,100.00
2022-08-17T19:37:25.590Z,100.00
2022-08-17T19:40:52.869Z,100.00
2022-08-17T19:44:32.808Z,100.00
2022-08-17T19:47:53.897Z,100.00
2022-08-17T19:51:11.287Z,100.00
2022-08-17T19:54:40.601Z,100.00
2022-08-17T19:57:58.321Z,100.00
2022-08-17T20:01:00.301Z,100.00
2022-08-17T20:04:39.397Z,100.00
2022-08-17T20:07:44.678Z,100.00
2022-08-17T20:10:54.954Z,100.00
2022-08-17T20:14:21.956Z,100.00
2022-08-17T20:17:37.859Z,100.00
2022-08-17T20:21:00.020Z,100.00
2022-08-17T20:24:40.426Z,100.00
2022-08-17T20:28:03.835Z,100.00
2022-08-17T20:31:49.963Z,100.00
2022-08-17T20:35:39.993Z,100.00
2022-08-17T20:38:43.493Z,100.00
2022-08-17T20:42:12.509Z,100.00
2022-08-17T20:45:26.590Z,100.00
2022-08-17T20:48:38.689Z,100.00
2022-08-17T20:52:01.324Z,100.00
2022-08-17T20:55:04.392Z,100.00
2022-08-17T20:58:15.150Z,100.00
2022-08-17T21:01:24.365Z,100.00
2022-08-17T21:04:50.561Z,100.00
2022-08-17T21:07:58.100Z,100.00
2022-08-17T21:11:20.968Z,100.00
2022-08-17T21:15:07.881Z,100.00
2022-08-17T21:18:40.321Z,100.00
2022-08-17T21:21:59.153Z,100.00
2022-08-17T21:25:14.734Z,100.00
2022-08-17T21:29:00.997Z,100.00
2022-08-17T21:32:03.259Z,100.00
2022-08-17T21:35:11.101Z,100.00
2022-08-17T21:38:14.503Z,100.00
2022-08-17T21:41:58.240Z,100.00
2022-08-17T21:45:19.993Z,100.00
2022-08-17T21:48:24.927Z,100.00
2022-08-17T21:51:29.074Z,100.00
2022-08-17T21:54:39.894Z,100.00
2022-08-17T21:57:52.906Z,100.00
2022-08-17T22:01:34.383Z,100.00
2022-08-17T22:04:39.285Z,100.00
2022-08-17T22:07:45.712Z,100.00
2022-08-17T22:10:51.258Z,100.00
2022-08-17T22:13:55.312Z,100.00
2022-08-17T22:17:11.066Z,100.00
2022-08-17T22:20:22.090Z,100.00
2022-08-17T22:23:51.150Z,100.00
2022-08-17T22:27:13.058Z,100.00
2022-08-17T22:30:20.041Z,100.00
2022-08-17T22:33:44.661Z,100.00
2022-08-17T22:36:46.329Z,100.00
2022-08-17T22:39:57.832Z,100.00
2022-08-17T22:43:03.584Z,100.00
2022-08-17T22:46:08.668Z,100.00
2022-08-17T22:49:10.493Z,100.00
2022-08-17T22:53:02.119Z,100.00
2022-08-17T22:56:23.590Z,100.00
2022-08-17T22:59:42.516Z,100.00
2022-08-17T23:03:06.447Z,100.00
2022-08-17T23:06:11.187Z,100.00
2022-08-17T23:09:12.955Z,100.00
2022-08-17T23:12:18.418Z,100.00
2022-08-17T23:15:20.254Z,100.00
2022-08-17T23:18:23.545Z,100.00
2022-08-17T23:21:29.757Z,100.00
2022-08-17T23:24:37.768Z,100.00
2022-08-17T23:27:41.762Z,100.00
2022-08-17T23:30:46.651Z,100.00
2022-08-17T23:33:49.693Z,100.00
2022-08-17T23:36:52.420Z,100.00
2022-08-17T23:39:54.695Z,100.00
2022-08-17T23:42:57.993Z,100.00
2022-08-17T23:46:03.964Z,100.00
2022-08-17T23:49:06.663Z,100.00
2022-08-17T23:52:12.477Z,100.00
2022-08-17T23:55:17.111Z,100.00
2022-08-17T23:58:19.063Z,100.00
